createdAt,value
2022-12-29T00:03:28.976Z,100218.44
2022-12-29T00:08:32.645Z,100218.44
2022-12-29T00:13:34.574Z,100211.31
2022-12-29T00:18:36.622Z,100208.56
2022-12-29T00:23:40.328Z,100204.13
2022-12-29T00:28:42.463Z,100198.75
2022-12-29T00:33:44.915Z,100190.78
2022-12-29T00:38:51.914Z,100191.59
2022-12-29T00:43:53.859Z,100183.75
2022-12-29T00:48:55.661Z,100176.59
2022-12-29T00:53:58.730Z,100184.53
2022-12-29T00:59:02.089Z,100175.72
2022-12-29T01:04:04.994Z,100180.00
2022-12-29T01:09:09.276Z,100181.84
2022-12-29T01:14:11.391Z,100175.66
2022-12-29T01:19:14.047Z,100178.22
2022-12-29T01:24:19.591Z,100176.41
2022-12-29T01:29:21.840Z,100181.63
2022-12-29T01:34:23.975Z,100189.69
2022-12-29T01:39:27.071Z,100171.19
2022-12-29T01:44:56.914Z,100165.09
2022-12-29T01:50:02.512Z,100157.22
2022-12-29T01:55:07.701Z,100134.41
2022-12-29T02:00:12.141Z,100152.88
2022-12-29T02:05:23.997Z,100140.31
2022-12-29T02:10:30.812Z,100143.72
2022-12-29T02:15:42.469Z,100140.03
2022-12-29T02:21:19.411Z,100132.09
2022-12-29T02:26:44.001Z,100130.22
2022-12-29T02:31:53.493Z,100128.16
2022-12-29T02:37:05.501Z,100112.25
2022-12-29T02:42:15.380Z,100105.00
2022-12-29T02:47:24.901Z,100119.16
2022-12-29T02:52:30.169Z,100110.19
2022-12-29T02:57:35.317Z,100106.59
2022-12-29T03:03:12.417Z,100090.53
2022-12-29T03:08:24.332Z,100083.47
2022-12-29T03:13:33.905Z,100075.31
2022-12-29T03:18:44.779Z,100070.91
2022-12-29T03:23:49.368Z,100069.91
2022-12-29T03:28:54.236Z,100065.56
2022-12-29T03:33:59.427Z,100070.72
2022-12-29T03:39:09.241Z,100053.97
2022-12-29T03:44:11.860Z,100061.94
2022-12-29T03:49:15.300Z,100072.44
2022-12-29T03:54:17.111Z,100081.91
2022-12-29T03:59:19.894Z,100070.63
2022-12-29T04:04:23.877Z,100066.88
2022-12-29T04:09:25.538Z,100066.78
2022-12-29T04:14:27.593Z,100075.84
2022-12-29T04:19:30.608Z,100078.31
2022-12-29T04:24:32.796Z,100072.13
2022-12-29T04:29:35.061Z,100050.91
2022-12-29T04:34:38.744Z,100049.22
2022-12-29T04:39:40.835Z,100061.47
2022-12-29T04:44:45.240Z,100064.97
2022-12-29T04:49:48.823Z,100054.38
2022-12-29T04:54:50.910Z,100058.78
2022-12-29T04:59:53.088Z,100056.72
2022-12-29T05:04:56.456Z,100051.50
2022-12-29T05:09:58.249Z,100020.31
2022-12-29T05:15:00.575Z,100026.38
2022-12-29T05:20:05.169Z,100019.22
2022-12-29T05:25:07.565Z,100015.50
2022-12-29T05:30:11.201Z,100019.81
2022-12-29T05:35:14.609Z,100001.78
2022-12-29T05:40:16.926Z,100017.69
2022-12-29T05:45:19.407Z,100016.66
2022-12-29T05:50:22.505Z,99996.31
2022-12-29T05:55:24.224Z,99992.78
2022-12-29T06:00:25.989Z,99989.13
2022-12-29T06:05:29.489Z,99988.31
2022-12-29T06:10:31.354Z,99986.31
2022-12-29T06:15:33.972Z,99989.06
2022-12-29T06:20:37.712Z,99990.72
2022-12-29T06:25:39.788Z,99996.09
2022-12-29T06:30:44.521Z,99990.94
2022-12-29T06:35:47.931Z,100004.44
2022-12-29T06:40:50.042Z,100002.78
2022-12-29T06:45:52.423Z,100014.34
2022-12-29T06:50:55.573Z,100020.47
2022-12-29T06:55:57.373Z,100018.97
2022-12-29T07:00:59.544Z,100013.78
2022-12-29T07:06:03.199Z,100025.66
2022-12-29T07:11:05.463Z,100041.63
2022-12-29T07:16:08.306Z,100032.91
2022-12-29T07:21:11.937Z,100040.25
2022-12-29T07:26:15.977Z,100034.00
2022-12-29T07:31:21.675Z,100020.75
2022-12-29T07:36:29.314Z,100027.72
2022-12-29T07:41:34.181Z,100013.59
2022-12-29T07:46:54.252Z,100025.75
2022-12-29T07:51:59.492Z,100022.94
2022-12-29T07:57:01.292Z,100021.06
2022-12-29T08:02:03.159Z,100012.16
2022-12-29T08:07:06.372Z,100009.25
2022-12-29T08:12:10.164Z,99980.91
2022-12-29T08:17:12.445Z,100016.09
2022-12-29T08:22:16.132Z,100010.72
2022-12-29T08:27:21.047Z,100011.69
2022-12-29T08:32:23.831Z,100003.69
2022-12-29T08:37:31.089Z,100007.28
2022-12-29T08:42:33.983Z,100016.06
2022-12-29T08:47:35.737Z,100005.16
2022-12-29T08:52:38.824Z,100015.59
2022-12-29T08:57:40.611Z,100003.16
2022-12-29T09:02:42.556Z,99995.84
2022-12-29T09:07:45.827Z,100006.13
2022-12-29T09:12:48.057Z,99985.94
2022-12-29T09:17:50.495Z,99986.94
2022-12-29T09:22:53.864Z,99995.22
2022-12-29T09:27:55.913Z,99988.59
2022-12-29T09:32:58.309Z,99989.22
2022-12-29T09:38:01.604Z,100002.19
2022-12-29T09:43:18.391Z,99983.13
2022-12-29T09:48:25.343Z,99985.56
2022-12-29T09:53:33.019Z,99977.59
2022-12-29T09:58:40.913Z,99994.09
2022-12-29T10:03:48.688Z,99985.91
2022-12-29T10:08:59.733Z,100000.47
2022-12-29T10:14:21.124Z,99995.38
2022-12-29T10:19:36.836Z,99986.38
2022-12-29T10:24:40.768Z,99993.75
2022-12-29T10:29:47.803Z,99977.81
2022-12-29T10:34:55.105Z,99990.09
2022-12-29T10:40:00.278Z,99984.44
2022-12-29T10:45:02.616Z,99975.78
2022-12-29T10:50:06.555Z,99978.00
2022-12-29T10:55:17.186Z,99971.88
2022-12-29T11:00:21.533Z,99972.88
2022-12-29T11:05:29.810Z,99988.13
2022-12-29T11:10:38.748Z,99989.63
2022-12-29T11:15:42.417Z,99995.94
2022-12-29T11:20:44.461Z,99997.28
2022-12-29T11:25:47.914Z,100017.78
2022-12-29T11:31:00.901Z,99999.41
2022-12-29T11:36:06.537Z,100003.69
2022-12-29T11:41:14.398Z,100008.47
2022-12-29T11:46:20.626Z,100014.06
2022-12-29T11:51:25.398Z,100031.06
2022-12-29T11:56:40.878Z,100014.56
2022-12-29T12:01:44.378Z,100023.81
2022-12-29T12:06:56.040Z,100023.25
2022-12-29T12:12:02.444Z,100010.03
2022-12-29T12:17:10.482Z,100025.03
2022-12-29T12:22:27.678Z,100007.38
2022-12-29T12:27:39.139Z,99998.63
2022-12-29T12:32:47.729Z,99995.94
2022-12-29T12:38:10.910Z,100014.47
2022-12-29T12:43:33.592Z,100000.19
2022-12-29T12:48:52.634Z,99987.53
2022-12-29T12:54:09.069Z,100002.09
2022-12-29T12:59:25.187Z,99999.72
2022-12-29T13:04:54.332Z,100007.94
2022-12-29T13:10:27.170Z,100013.06
2022-12-29T13:15:44.150Z,100014.72
2022-12-29T13:20:50.928Z,100010.69
2022-12-29T13:26:05.488Z,100010.22
2022-12-29T13:31:16.526Z,100006.84
2022-12-29T13:36:25.590Z,100015.13
2022-12-29T13:41:34.538Z,100010.88
2022-12-29T13:46:41.339Z,100011.84
2022-12-29T13:51:47.805Z,100020.84
2022-12-29T13:56:57.388Z,100015.72
2022-12-29T14:02:09.675Z,100008.09
2022-12-29T14:07:18.015Z,100008.28
2022-12-29T14:12:23.425Z,100020.72
2022-12-29T14:17:26.911Z,100017.94
2022-12-29T14:22:33.241Z,100014.91
2022-12-29T14:27:52.756Z,100022.72
2022-12-29T14:33:14.012Z,100033.34
2022-12-29T14:38:28.748Z,100034.50
2022-12-29T14:43:31.739Z,100045.72
2022-12-29T14:48:39.300Z,100050.19
2022-12-29T14:53:48.891Z,100065.31
2022-12-29T14:58:54.625Z,100056.63
2022-12-29T15:04:05.836Z,100075.25
2022-12-29T15:09:18.934Z,100092.84
2022-12-29T15:14:33.684Z,100099.13
2022-12-29T15:19:36.918Z,100100.03
2022-12-29T15:24:43.064Z,100101.94
2022-12-29T15:29:46.928Z,100106.56
2022-12-29T15:34:52.195Z,100111.03
2022-12-29T15:39:55.835Z,100112.78
2022-12-29T15:45:09.861Z,100115.50
2022-12-29T15:50:23.514Z,100127.69
2022-12-29T15:55:30.400Z,100135.31
2022-12-29T16:00:34.830Z,100142.44
2022-12-29T16:05:40.393Z,100157.13
2022-12-29T16:10:44.019Z,100154.59
2022-12-29T16:15:47.280Z,100168.50
2022-12-29T16:20:50.554Z,100164.13
2022-12-29T16:25:54.510Z,100168.38
2022-12-29T16:31:03.711Z,100170.16
2022-12-29T16:36:29.438Z,100176.28
2022-12-29T16:41:32.556Z,100184.06
2022-12-29T16:46:35.035Z,100193.00
2022-12-29T16:51:38.794Z,100188.78
2022-12-29T16:56:46.332Z,100191.47
2022-12-29T17:01:48.853Z,100199.44
2022-12-29T17:06:52.722Z,100207.28
2022-12-29T17:12:10.754Z,100212.41
2022-12-29T17:17:17.402Z,100214.13
2022-12-29T17:22:24.223Z,100208.13
2022-12-29T17:27:30.599Z,100213.47
2022-12-29T17:32:33.190Z,100215.72
2022-12-29T17:37:37.668Z,100221.16
2022-12-29T17:42:44.863Z,100220.69
2022-12-29T17:47:47.502Z,100222.84
2022-12-29T17:52:55.341Z,100223.88
2022-12-29T17:58:02.092Z,100224.22
2022-12-29T18:03:04.246Z,100218.50
2022-12-29T18:08:11.312Z,100229.59
2022-12-29T18:13:19.856Z,100235.19
2022-12-29T18:18:23.597Z,100237.94
2022-12-29T18:23:28.693Z,100248.59
2022-12-29T18:28:31.500Z,100243.31
2022-12-29T18:33:33.847Z,100250.25
2022-12-29T18:38:37.051Z,100249.38
2022-12-29T18:43:39.269Z,100255.63
2022-12-29T18:48:42.058Z,100249.41
2022-12-29T18:53:45.884Z,100252.16
2022-12-29T18:58:47.591Z,100253.84
2022-12-29T19:03:49.694Z,100263.66
2022-12-29T19:08:52.968Z,100258.53
2022-12-29T19:13:54.665Z,100261.25
2022-12-29T19:19:08.784Z,100265.69
2022-12-29T19:24:13.528Z,100270.88
2022-12-29T19:29:15.470Z,100276.97
2022-12-29T19:34:17.799Z,100283.03
2022-12-29T19:39:21.467Z,100286.41
2022-12-29T19:44:23.619Z,100290.78
2022-12-29T19:49:25.888Z,100296.97
2022-12-29T19:54:29.228Z,100292.63
2022-12-29T19:59:31.101Z,100294.34
2022-12-29T20:04:33.060Z,100300.41
2022-12-29T20:09:36.149Z,100294.00
2022-12-29T20:14:38.624Z,100291.22
2022-12-29T20:19:41.817Z,100283.09
2022-12-29T20:24:49.896Z,100285.78
2022-12-29T20:29:52.651Z,100300.78
2022-12-29T20:34:54.809Z,100294.59
2022-12-29T20:39:58.204Z,100303.38
2022-12-29T20:45:00.444Z,100289.44
2022-12-29T20:50:03.073Z,100293.06
2022-12-29T20:55:06.714Z,100297.69
2022-12-29T21:00:10.037Z,100306.63
2022-12-29T21:05:23.722Z,100281.06
2022-12-29T21:10:27.956Z,100290.56
2022-12-29T21:15:31.664Z,100295.81
2022-12-29T21:20:34.207Z,100290.63
2022-12-29T21:25:47.698Z,100303.00
2022-12-29T21:30:51.577Z,100309.44
2022-12-29T21:35:54.381Z,100295.47
2022-12-29T21:41:05.307Z,100318.31
2022-12-29T21:46:08.384Z,100325.31
2022-12-29T21:51:13.716Z,100314.81
2022-12-29T21:56:19.704Z,100331.59
2022-12-29T22:01:23.896Z,100337.03
2022-12-29T22:06:27.324Z,100337.88
2022-12-29T22:11:31.986Z,100340.59
2022-12-29T22:16:35.775Z,100339.78
2022-12-29T22:21:41.586Z,100340.72
2022-12-29T22:26:45.545Z,100346.91
2022-12-29T22:31:48.365Z,100340.84
2022-12-29T22:36:50.806Z,100338.16
2022-12-29T22:41:54.022Z,100349.50
2022-12-29T22:46:56.442Z,100363.59
2022-12-29T22:51:58.720Z,100366.22
2022-12-29T22:57:01.979Z,100372.44
2022-12-29T23:02:03.930Z,100383.97
2022-12-29T23:07:06.069Z,100389.34
2022-12-29T23:12:09.578Z,100384.06
2022-12-29T23:17:11.383Z,100388.44
2022-12-29T23:22:13.104Z,100393.75
2022-12-29T23:27:16.836Z,100395.53
2022-12-29T23:32:18.597Z,100397.25
2022-12-29T23:37:20.692Z,100395.44
2022-12-29T23:42:23.745Z,100406.81
2022-12-29T23:47:25.716Z,100409.47
2022-12-29T23:52:28.046Z,100416.53
2022-12-29T23:57:31.569Z,100421.81
